Time;durP1;ratioP1;P1;durP2;ratioP2;P2;SDS_P1;SDS_P2;PMS_P1;PMS_P2;Temp;Humidity;BMP_temperature;BMP_pressure;BME280_temperature;BME280_humidity;BME280_pressure;Samples;Min_cycle;Max_cycle;Signal;HPM_P1;HPM_P2
2023/09/08 00:01:16;;;;;;;8.53;5.50;;;17.60;99.90;;;;;;5047317;28;20457;-78
2023/09/08 00:03:43;;;;;;;9.47;6.47;;;17.60;99.90;;;;;;5047797;28;20463;-78
2023/09/08 00:06:10;;;;;;;6.43;5.80;;;17.60;99.90;;;;;;5049240;28;20499;-77
2023/09/08 00:08:36;;;;;;;8.00;6.10;;;17.60;99.90;;;;;;5047587;28;20435;-79
2023/09/08 00:11:04;;;;;;;7.90;6.10;;;17.50;99.90;;;;;;5049631;28;20435;-78
2023/09/08 00:13:31;;;;;;;10.53;5.90;;;17.50;99.90;;;;;;5048168;28;20432;-78
2023/09/08 00:15:59;;;;;;;10.10;6.33;;;17.50;99.90;;;;;;5046538;28;20864;-77
2023/09/08 00:18:26;;;;;;;7.60;6.20;;;17.60;99.90;;;;;;5047445;28;20905;-77
2023/09/08 00:20:52;;;;;;;10.27;7.23;;;17.60;99.90;;;;;;5048448;28;20469;-77
2023/09/08 00:23:19;;;;;;;12.47;7.00;;;17.60;99.90;;;;;;5047990;28;20435;-79
2023/09/08 00:25:46;;;;;;;8.87;7.20;;;17.60;99.90;;;;;;5048445;28;20493;-78
2023/09/08 00:28:12;;;;;;;10.70;7.50;;;17.50;99.90;;;;;;5048982;28;20428;-77
2023/09/08 00:30:39;;;;;;;12.20;6.97;;;17.50;99.90;;;;;;5049069;28;20473;-77
2023/09/08 00:33:08;;;;;;;14.80;7.40;;;17.40;99.90;;;;;;5049269;28;20834;-79
2023/09/08 00:35:35;;;;;;;9.70;6.43;;;17.40;99.90;;;;;;5049841;28;20427;-78
2023/09/08 00:38:02;;;;;;;8.53;6.60;;;17.30;99.90;;;;;;5050037;28;20450;-79
2023/09/08 00:40:29;;;;;;;9.40;7.10;;;17.30;99.90;;;;;;5041683;28;20468;-79
2023/09/08 00:42:55;;;;;;;7.17;6.30;;;17.20;99.90;;;;;;5042820;28;20428;-78
2023/09/08 00:45:23;;;;;;;8.40;6.60;;;17.20;99.90;;;;;;5043784;28;20485;-80
2023/09/08 00:47:50;;;;;;;10.03;6.60;;;17.10;99.90;;;;;;5045831;28;20485;-78
2023/09/08 00:50:18;;;;;;;8.53;6.07;;;17.00;99.90;;;;;;5050074;28;20484;-79
2023/09/08 00:52:45;;;;;;;7.33;5.80;;;17.00;99.90;;;;;;5050190;28;20472;-80
2023/09/08 00:55:11;;;;;;;11.67;6.77;;;17.00;99.90;;;;;;5050852;28;20429;-79
2023/09/08 00:57:38;;;;;;;6.67;6.07;;;17.00;99.90;;;;;;5050843;28;20424;-77
2023/09/08 01:00:06;;;;;;;9.37;6.87;;;16.90;99.90;;;;;;5050674;28;20455;-78
2023/09/08 01:02:33;;;;;;;8.80;6.67;;;17.00;99.90;;;;;;5051192;28;20420;-81
2023/09/08 01:05:00;;;;;;;9.53;6.83;;;17.00;99.90;;;;;;5050710;28;20497;-78
2023/09/08 01:07:32;;;;;;;6.90;6.30;;;17.20;99.90;;;;;;5054032;28;20408;-78
2023/09/08 01:10:03;;;;;;;11.23;7.17;;;16.90;99.90;;;;;;5055766;28;20479;-79
2023/09/08 01:12:30;;;;;;;13.00;7.43;;;17.00;99.90;;;;;;5055504;28;20432;-78
2023/09/08 01:14:57;;;;;;;9.73;7.03;;;16.90;99.90;;;;;;5055060;28;20420;-78
2023/09/08 01:17:24;;;;;;;9.23;7.83;;;16.90;99.90;;;;;;5056272;28;20403;-78
2023/09/08 01:19:54;;;;;;;14.23;6.90;;;16.80;99.90;;;;;;5055194;28;20458;-78
2023/09/08 01:22:37;;;;;;;8.97;7.60;;;16.80;99.90;;;;;;5055735;28;20439;-78
2023/09/08 01:25:29;;;;;;;11.50;6.80;;;16.80;99.90;;;;;;5055414;28;20465;-78
2023/09/08 01:27:59;;;;;;;16.60;7.20;;;16.70;99.90;;;;;;5041894;28;20436;-79
2023/09/08 01:30:32;;;;;;;10.63;7.10;;;16.80;99.90;;;;;;5056642;28;20461;-77
2023/09/08 01:32:59;;;;;;;17.47;7.00;;;16.90;99.90;;;;;;5055206;28;20408;-79
2023/09/08 01:35:26;;;;;;;16.33;6.50;;;16.80;99.90;;;;;;5054456;28;20404;-77
2023/09/08 01:37:53;;;;;;;11.13;6.87;;;16.80;99.90;;;;;;5055829;28;20419;-78
2023/09/08 01:40:20;;;;;;;7.67;6.87;;;16.80;99.90;;;;;;5054998;28;20473;-78
2023/09/08 01:42:49;;;;;;;9.53;6.30;;;16.70;99.90;;;;;;5055768;28;20412;-77
2023/09/08 01:45:15;;;;;;;8.33;6.00;;;16.80;99.90;;;;;;5055473;28;20485;-78
2023/09/08 01:47:42;;;;;;;11.43;6.43;;;16.80;99.90;;;;;;5055993;28;20416;-77
2023/09/08 01:50:11;;;;;;;11.93;6.30;;;16.80;99.90;;;;;;5047199;28;20464;-77
2023/09/08 01:52:38;;;;;;;9.13;5.73;;;16.80;99.90;;;;;;5055157;28;20441;-80
2023/09/08 01:55:05;;;;;;;7.70;5.77;;;16.80;99.90;;;;;;5056142;28;20465;-79
2023/09/08 01:57:32;;;;;;;9.10;6.93;;;16.80;99.90;;;;;;5055472;28;20465;-79
2023/09/08 02:00:00;;;;;;;7.80;5.80;;;16.70;99.90;;;;;;5054416;28;20442;-78
2023/09/08 02:02:26;;;;;;;8.10;6.43;;;16.70;99.90;;;;;;5053382;28;20434;-79
2023/09/08 02:04:53;;;;;;;11.80;6.60;;;16.80;99.90;;;;;;5052951;28;20424;-77
2023/09/08 02:07:20;;;;;;;7.43;6.63;;;16.60;99.90;;;;;;5054326;28;20416;-77
2023/09/08 02:09:46;;;;;;;6.80;5.93;;;16.60;99.90;;;;;;5053064;28;20506;-80
2023/09/08 02:12:13;;;;;;;6.67;6.00;;;16.50;99.90;;;;;;5053069;28;20457;-77
2023/09/08 02:14:40;;;;;;;6.63;5.93;;;16.50;99.90;;;;;;5052789;28;20424;-77
2023/09/08 02:17:08;;;;;;;14.20;6.20;;;16.40;99.90;;;;;;5052089;28;20453;-77
2023/09/08 02:19:34;;;;;;;7.83;7.03;;;16.40;99.90;;;;;;5053363;28;20875;-77
2023/09/08 02:22:01;;;;;;;6.60;5.97;;;16.40;99.90;;;;;;5054023;28;20456;-79
2023/09/08 02:24:28;;;;;;;7.60;6.67;;;16.40;99.90;;;;;;5053133;28;20585;-78
2023/09/08 02:26:54;;;;;;;9.20;6.87;;;16.30;99.90;;;;;;5052392;28;20464;-77
2023/09/08 02:29:22;;;;;;;7.17;6.47;;;16.30;99.90;;;;;;5048169;28;20457;-77
2023/09/08 02:31:49;;;;;;;9.00;7.13;;;16.30;99.90;;;;;;5054389;28;20488;-79
2023/09/08 02:34:17;;;;;;;10.10;7.40;;;16.30;99.90;;;;;;5055205;28;20431;-77
2023/09/08 02:36:46;;;;;;;10.70;7.10;;;16.30;99.90;;;;;;5046683;28;20488;-81
2023/09/08 02:39:13;;;;;;;8.50;6.90;;;16.30;99.90;;;;;;5057313;28;20448;-81
2023/09/08 02:41:40;;;;;;;12.90;8.07;;;16.30;99.90;;;;;;5058618;28;20416;-81
2023/09/08 02:44:06;;;;;;;10.13;7.30;;;16.30;99.90;;;;;;5055740;28;20488;-80
2023/09/08 02:46:33;;;;;;;9.10;7.37;;;16.30;99.90;;;;;;5054291;28;20464;-78
2023/09/08 02:49:01;;;;;;;11.87;7.20;;;16.30;99.90;;;;;;5049864;28;20428;-79
2023/09/08 02:51:29;;;;;;;9.90;7.20;;;16.20;99.90;;;;;;5053412;28;20454;-77
2023/09/08 02:53:55;;;;;;;10.93;7.27;;;16.30;99.90;;;;;;5052958;28;20445;-76
2023/09/08 02:56:22;;;;;;;8.00;7.10;;;16.30;99.90;;;;;;5053522;28;20412;-77
2023/09/08 02:58:49;;;;;;;13.97;7.47;;;16.20;99.90;;;;;;5053471;28;20396;-79
2023/09/08 03:01:20;;;;;;;9.93;7.00;;;16.10;99.90;;;;;;5053798;28;20488;-79
2023/09/08 03:03:47;;;;;;;7.70;6.60;;;16.10;99.90;;;;;;5054435;28;20450;-79
2023/09/08 03:06:15;;;;;;;12.20;7.60;;;16.10;99.90;;;;;;5053444;28;20456;-80
2023/09/08 03:08:43;;;;;;;12.03;6.97;;;16.10;99.90;;;;;;5053656;28;20428;-78
2023/09/08 03:11:10;;;;;;;10.73;5.83;;;16.00;99.90;;;;;;5053785;28;20426;-79
2023/09/08 03:13:36;;;;;;;7.43;6.50;;;16.00;99.90;;;;;;5054076;28;20480;-81
2023/09/08 03:16:05;;;;;;;7.57;6.87;;;15.90;99.90;;;;;;5052957;28;20434;-78
2023/09/08 03:18:32;;;;;;;9.90;6.60;;;15.90;99.90;;;;;;5054180;28;20437;-77
2023/09/08 03:20:59;;;;;;;7.73;6.53;;;15.90;99.90;;;;;;5053634;28;20480;-78
2023/09/08 03:23:26;;;;;;;8.87;6.50;;;15.80;99.90;;;;;;5052736;28;20463;-78
2023/09/08 03:25:54;;;;;;;7.73;6.90;;;15.80;99.90;;;;;;5053755;28;20467;-80
2023/09/08 03:28:20;;;;;;;8.20;7.33;;;15.80;99.90;;;;;;5053253;28;20432;-80
2023/09/08 03:30:47;;;;;;;8.00;7.20;;;15.80;99.90;;;;;;5053461;28;20444;-79
2023/09/08 03:33:14;;;;;;;8.80;7.90;;;15.80;99.90;;;;;;5054030;28;20436;-79
2023/09/08 03:35:40;;;;;;;17.03;8.77;;;15.80;99.90;;;;;;5053834;28;20421;-78
2023/09/08 03:38:07;;;;;;;20.00;7.40;;;15.80;99.90;;;;;;5055118;28;20862;-79
2023/09/08 03:40:34;;;;;;;12.53;8.63;;;15.70;99.90;;;;;;5054471;28;20470;-80
2023/09/08 03:43:02;;;;;;;10.10;8.90;;;15.70;99.90;;;;;;5054765;28;20466;-79
2023/09/08 03:45:28;;;;;;;9.50;8.43;;;15.80;99.90;;;;;;5053815;28;20428;-80
2023/09/08 03:47:55;;;;;;;12.53;7.73;;;15.80;99.90;;;;;;5049267;28;20478;-78
2023/09/08 03:50:22;;;;;;;13.63;8.27;;;15.80;99.90;;;;;;5052589;28;20492;-79
2023/09/08 03:52:48;;;;;;;11.70;8.83;;;15.70;99.90;;;;;;5054128;28;20427;-81
2023/09/08 03:55:16;;;;;;;10.90;8.67;;;15.70;99.90;;;;;;5053116;28;20427;-80
2023/09/08 03:57:43;;;;;;;13.43;8.63;;;15.70;99.90;;;;;;5053075;28;20477;-77
2023/09/08 04:00:12;;;;;;;11.77;7.80;;;15.70;99.90;;;;;;5052799;28;20455;-78
2023/09/08 04:02:39;;;;;;;11.23;9.13;;;15.60;99.90;;;;;;5052503;28;20523;-78
2023/09/08 04:05:06;;;;;;;10.17;8.40;;;15.60;99.90;;;;;;5051847;28;20442;-79
2023/09/08 04:07:33;;;;;;;12.57;8.57;;;15.60;99.90;;;;;;5048191;28;20461;-78
2023/09/08 04:10:00;;;;;;;10.83;8.50;;;15.50;99.90;;;;;;5049149;28;20488;-78
2023/09/08 04:12:26;;;;;;;11.30;8.50;;;15.50;99.90;;;;;;5048815;28;20457;-77
2023/09/08 04:14:53;;;;;;;12.43;9.10;;;15.40;99.90;;;;;;5048361;28;20436;-78
2023/09/08 04:17:21;;;;;;;17.43;9.60;;;15.50;99.90;;;;;;5053128;28;20430;-79
2023/09/08 04:19:48;;;;;;;12.93;8.90;;;15.40;99.90;;;;;;5052011;28;20448;-81
2023/09/08 04:22:14;;;;;;;14.53;9.27;;;15.50;99.90;;;;;;5052993;28;20521;-81
2023/09/08 04:24:41;;;;;;;13.60;10.10;;;15.40;99.90;;;;;;5044777;28;20413;-79
2023/09/08 04:27:08;;;;;;;10.80;9.70;;;15.50;99.90;;;;;;5050243;28;20508;-78
2023/09/08 04:29:35;;;;;;;17.00;9.50;;;15.50;99.90;;;;;;5052783;28;20479;-78
2023/09/08 04:32:08;;;;;;;15.70;9.63;;;15.50;99.90;;;;;;5049791;28;20435;-79
2023/09/08 04:34:37;;;;;;;16.23;10.30;;;15.50;99.90;;;;;;5052218;28;20482;-78
2023/09/08 04:37:04;;;;;;;14.67;10.20;;;15.50;99.90;;;;;;5052792;28;20449;-78
2023/09/08 04:39:31;;;;;;;14.73;9.90;;;15.50;99.90;;;;;;5052236;28;20461;-79
2023/09/08 04:41:57;;;;;;;13.27;10.00;;;15.40;99.90;;;;;;5055614;28;20446;-79
2023/09/08 04:44:24;;;;;;;12.37;9.93;;;15.40;99.90;;;;;;5056273;28;20742;-78
2023/09/08 04:46:51;;;;;;;14.70;9.63;;;15.20;99.90;;;;;;5056524;28;20455;-81
2023/09/08 04:49:18;;;;;;;20.50;9.30;;;15.30;99.90;;;;;;5048447;28;20424;-81
2023/09/08 04:51:46;;;;;;;11.83;8.80;;;15.20;99.90;;;;;;5054425;28;20476;-82
2023/09/08 04:54:13;;;;;;;13.40;9.60;;;15.20;99.90;;;;;;5057961;28;20459;-79
2023/09/08 04:56:40;;;;;;;19.67;8.93;;;15.20;99.90;;;;;;5057331;28;20431;-80
2023/09/08 04:59:06;;;;;;;12.10;8.73;;;15.10;99.90;;;;;;5057654;28;20537;-78
2023/09/08 05:01:36;;;;;;;11.70;8.63;;;15.10;99.90;;;;;;5057098;28;20457;-82
2023/09/08 05:04:03;;;;;;;18.23;9.10;;;15.00;99.90;;;;;;5057182;28;20449;-79
2023/09/08 05:06:30;;;;;;;20.33;8.40;;;15.10;99.90;;;;;;5056021;28;20492;-79
2023/09/08 05:09:00;;;;;;;15.10;9.10;;;15.00;99.90;;;;;;5055065;28;20473;-78
2023/09/08 05:11:27;;;;;;;17.47;9.47;;;15.00;99.90;;;;;;5054802;28;20445;-78
2023/09/08 05:13:54;;;;;;;11.00;8.20;;;14.90;99.90;;;;;;5053795;28;20454;-80
2023/09/08 05:16:35;;;;;;;16.83;8.73;;;14.80;99.90;;;;;;5054792;28;20435;-78
2023/09/08 05:19:03;;;;;;;20.50;9.07;;;14.80;99.90;;;;;;5055111;28;20507;-78
2023/09/08 05:21:31;;;;;;;16.90;8.97;;;14.80;99.90;;;;;;5053363;28;20448;-79
2023/09/08 05:23:59;;;;;;;9.90;8.23;;;14.80;99.90;;;;;;5040010;28;20938;-77
2023/09/08 05:26:25;;;;;;;12.50;9.10;;;14.80;99.90;;;;;;5033808;28;20489;-76
2023/09/08 05:28:52;;;;;;;17.20;9.23;;;14.90;99.90;;;;;;5033750;28;20596;-76
2023/09/08 05:31:19;;;;;;;13.20;9.37;;;14.90;99.90;;;;;;5034051;28;20474;-77
2023/09/08 05:33:45;;;;;;;18.37;9.00;;;15.00;99.90;;;;;;5034233;28;20453;-77
2023/09/08 05:36:12;;;;;;;14.43;8.70;;;15.30;99.90;;;;;;5033692;28;20543;-76
2023/09/08 05:38:39;;;;;;;14.60;8.93;;;15.60;99.90;;;;;;5033602;28;20453;-76
2023/09/08 05:41:07;;;;;;;16.27;8.50;;;16.00;99.90;;;;;;5036620;28;20428;-76
2023/09/08 05:43:33;;;;;;;16.00;8.10;;;16.30;99.90;;;;;;5037516;28;20456;-78
2023/09/08 05:46:00;;;;;;;13.47;7.83;;;16.60;99.90;;;;;;5037541;28;20423;-76
2023/09/08 05:48:26;;;;;;;14.90;7.87;;;16.80;99.90;;;;;;5028711;28;20918;-77
2023/09/08 05:50:53;;;;;;;15.83;7.60;;;17.10;99.90;;;;;;5038135;28;20456;-76
2023/09/08 05:53:20;;;;;;;11.67;8.30;;;17.40;99.90;;;;;;5033517;28;20549;-77
2023/09/08 05:55:47;;;;;;;17.80;8.47;;;17.80;99.90;;;;;;5038499;28;20478;-77
2023/09/08 05:58:15;;;;;;;13.70;8.00;;;18.10;99.90;;;;;;5033839;28;20485;-77
2023/09/08 06:00:42;;;;;;;14.17;8.90;;;18.40;99.90;;;;;;5029854;28;20470;-77
2023/09/08 06:03:08;;;;;;;12.00;8.93;;;18.80;99.90;;;;;;5032885;28;20957;-77
2023/09/08 06:05:35;;;;;;;15.90;8.63;;;19.20;99.90;;;;;;5034789;28;20449;-77
2023/09/08 06:08:02;;;;;;;22.23;9.17;;;19.50;99.90;;;;;;5034703;28;20543;-77
2023/09/08 06:10:30;;;;;;;25.90;10.30;;;19.90;99.90;;;;;;5034748;28;20447;-78
2023/09/08 06:12:57;;;;;;;18.43;9.70;;;20.10;99.90;;;;;;5034395;28;20493;-78
2023/09/08 06:15:25;;;;;;;15.70;8.30;;;20.50;99.90;;;;;;5034833;28;20440;-77
2023/09/08 06:17:51;;;;;;;14.57;9.37;;;20.70;99.90;;;;;;5034841;28;20453;-77
2023/09/08 06:20:18;;;;;;;18.30;10.17;;;21.10;99.90;;;;;;5033822;28;20888;-77
2023/09/08 06:22:44;;;;;;;15.00;9.97;;;21.50;99.90;;;;;;5033680;28;20974;-77
2023/09/08 06:25:11;;;;;;;15.47;9.37;;;21.80;99.90;;;;;;5032984;28;20496;-77
2023/09/08 06:27:38;;;;;;;12.33;9.30;;;22.20;99.90;;;;;;5034327;28;20543;-77
2023/09/08 06:30:05;;;;;;;14.63;10.00;;;22.50;99.90;;;;;;5034814;28;20531;-77
2023/09/08 06:32:33;;;;;;;17.60;9.10;;;22.70;99.90;;;;;;5036431;28;20456;-77
2023/09/08 06:35:00;;;;;;;14.53;9.37;;;23.00;99.90;;;;;;5034906;28;20461;-78
2023/09/08 06:37:28;;;;;;;18.83;8.70;;;23.20;99.90;;;;;;5032547;28;20499;-78
2023/09/08 06:39:55;;;;;;;24.37;8.50;;;23.40;99.90;;;;;;5034009;28;20959;-77
2023/09/08 06:42:22;;;;;;;12.07;8.20;;;23.60;99.90;;;;;;5032611;28;20458;-77
2023/09/08 06:44:48;;;;;;;11.53;9.20;;;23.70;99.90;;;;;;5035435;28;20453;-77
2023/09/08 06:47:15;;;;;;;15.90;9.00;;;23.80;99.90;;;;;;5034042;28;20554;-77
2023/09/08 06:49:43;;;;;;;13.87;8.30;;;23.90;99.90;;;;;;5030722;28;20564;-77
2023/09/08 06:52:10;;;;;;;11.87;8.50;;;24.00;99.90;;;;;;5034198;28;20449;-77
2023/09/08 06:54:36;;;;;;;11.80;9.03;;;24.30;99.90;;;;;;5034515;28;20507;-77
2023/09/08 06:57:04;;;;;;;17.73;7.50;;;24.50;99.90;;;;;;5033879;28;20445;-78
2023/09/08 06:59:30;;;;;;;8.43;7.50;;;24.50;99.90;;;;;;5035068;28;20512;-77
2023/09/08 07:01:57;;;;;;;11.07;7.53;;;24.50;99.90;;;;;;5034701;28;20450;-77
2023/09/08 07:04:23;;;;;;;13.80;7.93;;;24.50;99.90;;;;;;5034668;28;20457;-78
2023/09/08 07:06:54;;;;;;;17.13;8.13;;;24.50;99.90;;;;;;5035484;28;21087;-77
2023/09/08 07:09:21;;;;;;;12.33;7.97;;;24.60;99.90;;;;;;5034498;28;20477;-77
2023/09/08 07:11:47;;;;;;;10.40;8.63;;;24.70;99.90;;;;;;5035679;28;20446;-77
2023/09/08 07:14:14;;;;;;;11.87;9.90;;;24.80;99.90;;;;;;5035083;28;20500;-78
2023/09/08 07:16:40;;;;;;;11.90;10.53;;;24.90;99.90;;;;;;5036021;28;20461;-77
2023/09/08 07:19:07;;;;;;;11.90;9.20;;;25.00;99.90;;;;;;5036737;28;20484;-77
2023/09/08 07:21:34;;;;;;;10.00;8.20;;;25.00;99.90;;;;;;5036273;28;20471;-77
2023/09/08 07:24:02;;;;;;;10.17;9.17;;;25.00;99.90;;;;;;5036218;28;20879;-77
2023/09/08 07:26:29;;;;;;;14.20;9.00;;;25.00;99.90;;;;;;5036117;28;20492;-77
2023/09/08 07:28:55;;;;;;;10.73;8.57;;;25.00;99.90;;;;;;5035641;28;20501;-77
2023/09/08 07:31:22;;;;;;;12.73;8.13;;;24.90;99.90;;;;;;5035538;28;20461;-77
2023/09/08 07:33:49;;;;;;;11.50;8.50;;;24.90;99.90;;;;;;5035148;28;20453;-78
2023/09/08 07:36:16;;;;;;;10.47;9.03;;;25.00;99.90;;;;;;5035828;28;20547;-77
2023/09/08 07:38:43;;;;;;;11.40;8.27;;;25.20;99.90;;;;;;5036863;28;20539;-77
2023/09/08 07:41:11;;;;;;;12.60;8.57;;;25.30;99.90;;;;;;5037028;28;20452;-78
2023/09/08 07:43:40;;;;;;;12.73;8.27;;;25.40;99.90;;;;;;5034223;28;20458;-77
2023/09/08 07:46:07;;;;;;;12.57;9.17;;;25.50;99.90;;;;;;5034813;28;20465;-77
2023/09/08 07:48:33;;;;;;;12.87;8.07;;;25.50;99.90;;;;;;5030437;28;21078;-77
2023/09/08 07:51:00;;;;;;;11.50;7.93;;;25.60;99.90;;;;;;5035290;28;20461;-77
2023/09/08 07:53:27;;;;;;;9.37;7.90;;;25.70;99.90;;;;;;5035732;28;20449;-77
2023/09/08 07:55:54;;;;;;;8.50;7.43;;;25.80;99.90;;;;;;5035341;28;20457;-77
2023/09/08 07:58:22;;;;;;;12.13;7.40;;;25.90;99.90;;;;;;5035377;28;20449;-77
2023/09/08 08:00:49;;;;;;;8.73;7.40;;;25.90;99.90;;;;;;5027455;28;20474;-77
2023/09/08 08:03:15;;;;;;;13.07;7.00;;;25.90;99.90;;;;;;5036746;28;20500;-77
2023/09/08 08:05:42;;;;;;;7.10;6.40;;;26.00;99.90;;;;;;5037403;28;20467;-77
2023/09/08 08:08:09;;;;;;;11.00;6.07;;;26.20;99.90;;;;;;5038334;28;20500;-78
2023/09/08 08:10:36;;;;;;;10.23;6.50;;;26.30;99.90;;;;;;5036252;28;20572;-77
2023/09/08 08:13:02;;;;;;;7.13;6.23;;;26.30;99.90;;;;;;5038116;28;20449;-77
2023/09/08 08:15:37;;;;;;;8.33;6.80;;;26.40;99.90;;;;;;5036960;28;20545;-78
2023/09/08 08:18:05;;;;;;;6.47;5.87;;;26.60;99.90;;;;;;5037159;28;20460;-77
2023/09/08 08:20:34;;;;;;;8.93;6.47;;;26.80;99.90;;;;;;5038457;28;20568;-77
2023/09/08 08:23:01;;;;;;;8.37;6.30;;;27.00;99.90;;;;;;5037422;28;20476;-77
2023/09/08 08:25:28;;;;;;;8.23;5.83;;;27.30;99.90;;;;;;5037741;28;20915;-76
2023/09/08 08:27:54;;;;;;;6.83;6.17;;;27.30;99.90;;;;;;5037344;28;21060;-77
2023/09/08 08:30:21;;;;;;;9.47;6.40;;;27.10;99.90;;;;;;5036854;28;21028;-77
2023/09/08 08:32:51;;;;;;;11.93;6.20;;;27.10;99.90;;;;;;5036296;28;20457;-77
2023/09/08 08:35:17;;;;;;;6.60;5.50;;;27.10;99.90;;;;;;5030695;28;20462;-77
2023/09/08 08:37:44;;;;;;;11.10;5.90;;;26.90;99.90;;;;;;5037075;28;20449;-79
2023/09/08 08:40:12;;;;;;;7.10;5.83;;;26.80;99.90;;;;;;5037468;28;20471;-78
2023/09/08 08:42:38;;;;;;;8.00;6.60;;;26.80;99.90;;;;;;5036411;28;20503;-78
2023/09/08 08:45:06;;;;;;;8.33;6.00;;;26.80;99.90;;;;;;5037425;28;20495;-77
2023/09/08 08:47:33;;;;;;;7.77;6.50;;;26.90;99.90;;;;;;5033403;28;20490;-77
2023/09/08 08:50:02;;;;;;;9.73;6.20;;;27.10;99.90;;;;;;5036831;28;20531;-77
2023/09/08 08:52:29;;;;;;;7.37;6.00;;;27.10;99.90;;;;;;5036191;28;20837;-78
2023/09/08 08:54:57;;;;;;;6.23;5.40;;;27.20;99.90;;;;;;5035639;28;20457;-77
2023/09/08 08:57:26;;;;;;;6.83;6.07;;;27.40;99.90;;;;;;5034364;28;20475;-77
2023/09/08 08:59:53;;;;;;;6.00;5.40;;;27.40;99.90;;;;;;5034575;28;20481;-77
2023/09/08 09:02:20;;;;;;;10.50;6.10;;;27.50;99.90;;;;;;5035537;28;20887;-77
2023/09/08 09:04:47;;;;;;;9.30;6.47;;;27.50;99.90;;;;;;5034822;28;20457;-77
2023/09/08 09:07:15;;;;;;;8.97;5.90;;;27.30;99.90;;;;;;5035828;28;20454;-78
2023/09/08 09:09:42;;;;;;;11.33;6.33;;;27.20;99.90;;;;;;5034503;28;20855;-78
2023/09/08 09:12:08;;;;;;;19.53;6.43;;;27.10;99.90;;;;;;5037796;28;20482;-77
2023/09/08 09:14:35;;;;;;;11.13;6.43;;;27.00;99.90;;;;;;5038297;28;20460;-77
2023/09/08 09:17:04;;;;;;;6.53;5.67;;;27.10;99.90;;;;;;5037951;28;20457;-78
2023/09/08 09:19:31;;;;;;;7.77;5.63;;;27.10;99.90;;;;;;5037021;28;20560;-77
2023/09/08 09:21:59;;;;;;;11.30;5.90;;;27.10;99.90;;;;;;5035435;28;20461;-77
2023/09/08 09:24:33;;;;;;;5.60;5.10;;;27.40;99.90;;;;;;5037344;28;20882;-77
2023/09/08 09:27:00;;;;;;;7.90;5.53;;;27.40;99.90;;;;;;5039758;28;20465;-77
2023/09/08 09:29:28;;;;;;;6.90;5.80;;;27.40;99.90;;;;;;5042501;28;20749;-77
2023/09/08 09:31:55;;;;;;;9.20;5.47;;;27.30;99.90;;;;;;5035459;28;20457;-77
2023/09/08 09:34:22;;;;;;;6.57;5.70;;;27.10;99.90;;;;;;5041922;28;20453;-77
2023/09/08 09:36:50;;;;;;;12.57;6.37;;;27.10;99.90;;;;;;5033879;28;20453;-77
2023/09/08 09:39:20;;;;;;;10.80;5.80;;;27.30;99.90;;;;;;5035768;28;20533;-77
2023/09/08 09:41:48;;;;;;;10.17;5.30;;;27.40;99.90;;;;;;5038645;28;20453;-77
2023/09/08 09:44:16;;;;;;;9.53;6.00;;;27.50;99.90;;;;;;5033838;28;20510;-77
2023/09/08 09:46:46;;;;;;;7.90;5.37;;;27.50;99.90;;;;;;5038507;28;20449;-77
2023/09/08 09:49:13;;;;;;;9.67;5.77;;;27.70;99.90;;;;;;5033800;28;20569;-77
2023/09/08 09:51:44;;;;;;;8.30;5.63;;;27.80;99.90;;;;;;5039743;28;20477;-79
2023/09/08 09:54:10;;;;;;;11.97;5.37;;;27.90;99.90;;;;;;5039202;28;20441;-77
2023/09/08 09:56:39;;;;;;;8.23;5.33;;;28.00;99.90;;;;;;5038243;28;20453;-77
2023/09/08 09:59:09;;;;;;;16.40;7.07;;;28.20;99.90;;;;;;5041455;28;20477;-77
2023/09/08 10:01:36;;;;;;;7.97;5.60;;;28.00;99.90;;;;;;5040182;28;21034;-77
2023/09/08 10:04:04;;;;;;;9.93;5.30;;;28.00;99.90;;;;;;5035301;28;20515;-78
2023/09/08 10:06:33;;;;;;;7.63;5.23;;;28.20;99.90;;;;;;5043908;28;20485;-78
2023/09/08 10:09:00;;;;;;;8.93;5.97;;;28.40;99.90;;;;;;5040425;28;20534;-77
2023/09/08 10:11:30;;;;;;;5.80;5.30;;;28.30;99.90;;;;;;5040614;28;20534;-77
2023/09/08 10:13:59;;;;;;;8.43;5.67;;;28.30;99.90;;;;;;5033268;28;20880;-77
2023/09/08 10:16:28;;;;;;;5.60;4.83;;;28.40;99.90;;;;;;5042402;28;20461;-77
2023/09/08 10:18:58;;;;;;;11.37;5.80;;;28.20;99.90;;;;;;5042641;28;20473;-78
2023/09/08 10:21:27;;;;;;;10.70;5.27;;;28.30;99.90;;;;;;5033542;28;20518;-77
2023/09/08 10:24:00;;;;;;;9.37;5.47;;;28.50;99.90;;;;;;5041389;28;20477;-78
2023/09/08 10:26:31;;;;;;;7.57;5.17;;;28.60;99.90;;;;;;5039247;28;20462;-77
2023/09/08 10:28:57;;;;;;;5.77;5.27;;;28.80;99.90;;;;;;5039785;28;20492;-77
2023/09/08 10:31:28;;;;;;;9.27;7.00;;;28.90;99.90;;;;;;5043298;28;20450;-77
2023/09/08 10:33:56;;;;;;;5.97;5.20;;;29.10;99.90;;;;;;5042051;28;20499;-78
2023/09/08 10:36:24;;;;;;;9.47;6.07;;;29.20;99.90;;;;;;5040860;28;20486;-77
2023/09/08 10:38:51;;;;;;;5.83;5.33;;;29.30;99.90;;;;;;5032520;28;20477;-77
2023/09/08 10:41:31;;;;;;;6.20;5.13;;;29.00;99.90;;;;;;5040917;28;20453;-76
2023/09/08 10:44:02;;;;;;;9.90;5.50;;;29.00;99.90;;;;;;5044291;28;20429;-78
2023/09/08 10:46:32;;;;;;;10.13;5.40;;;29.10;99.90;;;;;;5044410;28;20480;-77
2023/09/08 10:49:04;;;;;;;13.40;6.20;;;29.20;99.90;;;;;;5040585;28;20500;-77
2023/09/08 10:51:31;;;;;;;5.80;5.17;;;29.30;99.90;;;;;;5043915;28;20457;-77
2023/09/08 10:53:57;;;;;;;6.83;5.47;;;29.50;99.90;;;;;;5043549;28;20465;-77
2023/09/08 10:56:29;;;;;;;5.97;5.40;;;29.50;99.90;;;;;;5044155;28;20958;-77
2023/09/08 10:58:56;;;;;;;8.73;5.57;;;29.50;99.90;;;;;;5043438;28;20489;-78
2023/09/08 11:01:26;;;;;;;5.63;5.10;;;29.60;99.90;;;;;;5041387;28;20454;-77
2023/09/08 11:03:55;;;;;;;5.80;5.20;;;29.90;99.90;;;;;;5040251;28;20450;-77
2023/09/08 11:06:23;;;;;;;5.20;4.80;;;29.90;99.90;;;;;;5043936;28;20468;-77
2023/09/08 11:08:52;;;;;;;9.80;5.90;;;29.80;99.90;;;;;;5041339;28;20485;-77
2023/09/08 11:11:19;;;;;;;8.80;4.53;;;29.50;99.90;;;;;;5042326;28;20457;-77
2023/09/08 11:13:46;;;;;;;5.40;4.93;;;29.60;99.90;;;;;;5041790;28;20456;-79
2023/09/08 11:16:14;;;;;;;5.83;4.73;;;29.70;99.90;;;;;;5038702;28;21118;-77
2023/09/08 11:18:42;;;;;;;5.80;4.93;;;29.60;99.90;;;;;;5043233;28;20453;-80
2023/09/08 11:21:11;;;;;;;6.00;5.50;;;30.00;99.90;;;;;;5042165;28;20481;-78
2023/09/08 11:23:38;;;;;;;5.83;5.33;;;30.10;99.90;;;;;;5042030;28;20508;-77
2023/09/08 11:26:07;;;;;;;5.70;5.20;;;29.90;99.90;;;;;;5042114;28;20468;-78
2023/09/08 11:28:34;;;;;;;6.33;5.07;;;29.70;99.90;;;;;;5039445;28;20596;-77
2023/09/08 11:31:03;;;;;;;7.97;4.90;;;29.60;99.90;;;;;;5043681;28;20503;-77
2023/09/08 11:33:38;;;;;;;8.60;5.00;;;29.70;99.90;;;;;;5041859;28;20461;-78
2023/09/08 11:36:15;;;;;;;5.70;5.00;;;29.70;99.90;;;;;;5042047;28;20822;-77
2023/09/08 11:38:44;;;;;;;5.43;4.80;;;29.70;99.90;;;;;;5040807;28;20994;-77
2023/09/08 11:41:11;;;;;;;8.20;4.80;;;30.20;99.90;;;;;;5040271;28;20469;-77
2023/09/08 11:43:38;;;;;;;5.13;4.73;;;30.40;99.90;;;;;;5040810;28;20480;-78
2023/09/08 11:46:06;;;;;;;5.07;4.67;;;30.50;99.90;;;;;;5038008;28;20491;-78
2023/09/08 11:48:33;;;;;;;7.57;5.10;;;30.70;99.90;;;;;;5027385;28;20497;-77
2023/09/08 11:51:00;;;;;;;6.80;4.93;;;30.90;99.90;;;;;;5039774;28;20453;-77
2023/09/08 11:53:28;;;;;;;6.37;4.73;;;30.80;99.90;;;;;;5041611;28;20457;-78
2023/09/08 11:55:55;;;;;;;5.13;4.60;;;30.80;99.90;;;;;;5038399;28;20499;-77
2023/09/08 11:58:23;;;;;;;5.73;5.17;;;30.90;99.90;;;;;;5039020;28;20452;-77
2023/09/08 12:00:51;;;;;;;11.73;5.10;;;30.80;99.90;;;;;;5041608;28;20473;-77
2023/09/08 12:03:18;;;;;;;5.07;4.57;;;30.70;99.90;;;;;;5039899;28;21020;-77
2023/09/08 12:05:51;;;;;;;5.43;4.70;;;30.70;99.90;;;;;;5040834;28;20464;-80
2023/09/08 12:08:17;;;;;;;6.83;4.63;;;30.70;99.90;;;;;;5031903;28;20511;-78
2023/09/08 12:10:45;;;;;;;6.90;4.50;;;31.00;99.90;;;;;;5041138;28;20473;-77
2023/09/08 12:13:14;;;;;;;8.83;4.77;;;31.10;99.90;;;;;;5040323;28;20442;-79
2023/09/08 12:15:42;;;;;;;5.97;5.00;;;31.20;99.90;;;;;;5043490;28;20536;-77
2023/09/08 12:18:09;;;;;;;10.53;4.23;;;31.20;99.90;;;;;;5040217;28;20535;-77
2023/09/08 12:20:37;;;;;;;6.87;5.07;;;31.50;99.90;;;;;;5038921;28;20469;-78
2023/09/08 12:23:07;;;;;;;11.10;4.60;;;31.30;99.90;;;;;;5038607;28;20449;-78
2023/09/08 12:25:35;;;;;;;4.57;4.27;;;31.10;99.90;;;;;;5036831;28;20952;-77
2023/09/08 12:28:03;;;;;;;5.33;4.83;;;30.90;99.90;;;;;;5038140;28;20461;-77
2023/09/08 12:30:32;;;;;;;5.27;4.73;;;30.70;99.90;;;;;;5037723;28;20903;-77
2023/09/08 12:33:00;;;;;;;6.73;4.50;;;31.00;99.90;;;;;;5038830;28;20458;-78
2023/09/08 12:35:28;;;;;;;5.47;4.53;;;31.10;99.90;;;;;;5037750;28;20461;-77
2023/09/08 12:37:59;;;;;;;8.33;4.40;;;31.10;99.90;;;;;;5038422;28;20935;-77
2023/09/08 12:40:26;;;;;;;5.20;4.30;;;31.30;99.90;;;;;;5041827;28;20462;-78
2023/09/08 12:42:53;;;;;;;6.13;4.87;;;31.30;99.90;;;;;;5037694;28;20461;-78